createdAt,value
2023-03-04T00:00:49.045Z,11.30
2023-03-04T00:03:37.451Z,11.50
2023-03-04T00:06:26.357Z,11.50
2023-03-04T00:09:14.797Z,11.10
2023-03-04T00:12:05.035Z,11.30
2023-03-04T00:14:53.465Z,11.20
2023-03-04T00:17:41.969Z,11.30
2023-03-04T00:20:30.414Z,11.10
2023-03-04T00:23:19.324Z,10.10
2023-03-04T00:26:08.028Z,10.20
2023-03-04T00:28:57.952Z,10.50
2023-03-04T00:31:46.500Z,10.80
2023-03-04T00:34:35.043Z,10.90
2023-03-04T00:37:23.609Z,11.00
2023-03-04T00:40:13.257Z,11.10
2023-03-04T00:43:01.730Z,11.10
2023-03-04T00:45:51.605Z,10.80
2023-03-04T00:48:40.669Z,10.70
2023-03-04T00:51:29.231Z,10.90
2023-03-04T00:54:17.741Z,10.90
2023-03-04T00:57:06.338Z,10.60
2023-03-04T00:59:54.795Z,10.10
2023-03-04T01:02:44.716Z,9.90
2023-03-04T01:05:34.388Z,9.60
2023-03-04T01:08:22.872Z,9.60
2023-03-04T01:11:11.525Z,9.30
2023-03-04T01:14:00.038Z,9.40
2023-03-04T01:16:48.655Z,9.50
2023-03-04T01:19:38.477Z,9.60
2023-03-04T01:22:26.950Z,9.50
2023-03-04T01:25:15.540Z,9.70
2023-03-04T01:28:04.350Z,9.70
2023-03-04T01:30:52.887Z,9.80
2023-03-04T01:33:41.359Z,10.00
2023-03-04T01:36:31.217Z,10.00
2023-03-04T01:39:19.685Z,9.90
2023-03-04T01:42:14.731Z,9.90
2023-03-04T01:45:03.980Z,10.00
2023-03-04T01:47:53.529Z,10.00
2023-03-04T01:50:42.087Z,10.00
2023-03-04T01:53:33.712Z,9.90
2023-03-04T01:56:26.347Z,9.80
2023-03-04T01:59:17.054Z,9.90
2023-03-04T02:02:05.718Z,10.10
2023-03-04T02:04:54.147Z,10.20
2023-03-04T02:07:43.022Z,10.20
2023-03-04T02:10:33.512Z,10.30
2023-03-04T02:13:22.105Z,10.30
2023-03-04T02:16:10.749Z,10.40
2023-03-04T02:19:00.165Z,10.40
2023-03-04T02:21:48.654Z,10.40
2023-03-04T02:24:42.611Z,10.50
2023-03-04T02:27:32.421Z,10.40
2023-03-04T02:30:25.403Z,10.00
2023-03-04T02:33:18.649Z,10.00
2023-03-04T02:36:08.057Z,10.10
2023-03-04T02:38:57.308Z,10.30
2023-03-04T02:41:45.773Z,10.30
2023-03-04T02:44:37.179Z,10.10
2023-03-04T02:47:25.670Z,10.30
2023-03-04T02:50:14.184Z,10.20
2023-03-04T02:53:02.669Z,10.00
2023-03-04T02:55:51.105Z,10.00
2023-03-04T02:58:40.594Z,10.20
2023-03-04T03:01:31.391Z,10.20
2023-03-04T03:04:21.204Z,10.30
2023-03-04T03:07:10.214Z,10.20
2023-03-04T03:09:58.671Z,10.10
2023-03-04T03:12:47.571Z,10.20
2023-03-04T03:15:36.498Z,10.20
2023-03-04T03:18:26.466Z,10.00
2023-03-04T03:21:14.987Z,9.80
2023-03-04T03:24:03.631Z,9.40
2023-03-04T03:26:52.101Z,9.70
2023-03-04T03:29:40.615Z,9.70
2023-03-04T03:32:29.116Z,9.80
2023-03-04T03:35:19.131Z,9.50
2023-03-04T03:38:07.587Z,8.80
2023-03-04T03:40:56.064Z,8.90
2023-03-04T03:43:44.465Z,9.10
2023-03-04T03:46:33.065Z,8.90
2023-03-04T03:49:21.704Z,8.70
2023-03-04T03:52:11.510Z,8.50
2023-03-04T03:55:02.049Z,8.70
2023-03-04T03:57:50.665Z,9.00
2023-03-04T04:00:39.079Z,9.10
2023-03-04T04:03:27.614Z,9.20
2023-03-04T04:06:16.067Z,9.30
2023-03-04T04:09:05.991Z,9.50
2023-03-04T04:11:54.470Z,9.60
2023-03-04T04:14:43.179Z,9.60
2023-03-04T04:17:31.617Z,8.70
2023-03-04T04:20:20.167Z,8.50
2023-03-04T04:23:08.536Z,9.00
2023-03-04T04:25:58.892Z,9.20
2023-03-04T04:28:47.380Z,9.40
2023-03-04T04:31:36.068Z,9.30
2023-03-04T04:34:24.524Z,9.10
2023-03-04T04:37:13.133Z,9.00
2023-03-04T04:40:01.603Z,9.10
2023-03-04T04:42:51.543Z,8.70
2023-03-04T04:45:40.049Z,8.40
2023-03-04T04:48:28.546Z,8.60
2023-03-04T04:51:17.267Z,8.50
2023-03-04T04:54:07.296Z,8.30
2023-03-04T04:56:55.771Z,8.40
2023-03-04T04:59:45.556Z,8.70
2023-03-04T05:02:36.338Z,8.30
2023-03-04T05:05:24.844Z,8.60
2023-03-04T05:08:13.295Z,8.90
2023-03-04T05:11:02.636Z,9.20
2023-03-04T05:13:51.563Z,9.00
2023-03-04T05:16:41.447Z,8.60
2023-03-04T05:19:29.967Z,8.40
2023-03-04T05:22:18.426Z,8.20
2023-03-04T05:25:07.395Z,8.20
2023-03-04T05:27:56.015Z,8.20
2023-03-04T05:30:46.310Z,8.10
2023-03-04T05:33:36.315Z,8.40
2023-03-04T05:36:24.822Z,8.70
2023-03-04T05:39:13.288Z,8.90
2023-03-04T05:42:01.731Z,9.10
2023-03-04T05:44:50.244Z,9.20
2023-03-04T05:47:38.772Z,9.30
2023-03-04T05:50:28.705Z,9.40
2023-03-04T05:53:17.291Z,9.40
2023-03-04T05:56:09.330Z,9.20
2023-03-04T05:58:59.184Z,9.20
2023-03-04T06:01:47.935Z,9.20
2023-03-04T06:04:36.509Z,8.70
2023-03-04T06:07:26.460Z,8.20
2023-03-04T06:10:17.272Z,8.30
2023-03-04T06:13:05.796Z,8.00
2023-03-04T06:15:58.010Z,7.40
2023-03-04T06:18:46.526Z,6.90
2023-03-04T06:21:35.010Z,7.10
2023-03-04T06:24:25.222Z,7.20
2023-03-04T06:27:13.905Z,7.20
2023-03-04T06:30:02.816Z,7.60
2023-03-04T06:32:51.636Z,7.50
2023-03-04T06:35:40.197Z,7.60
2023-03-04T06:38:28.738Z,8.10
2023-03-04T06:41:18.595Z,8.40
2023-03-04T06:44:07.535Z,8.70
2023-03-04T06:46:56.121Z,8.70
2023-03-04T06:49:44.572Z,8.40
2023-03-04T06:52:33.078Z,8.50
2023-03-04T06:55:21.844Z,8.80
2023-03-04T06:58:11.664Z,8.80
2023-03-04T07:01:11.930Z,8.50
2023-03-04T07:04:00.619Z,8.70
2023-03-04T07:06:49.117Z,8.70
2023-03-04T07:09:37.617Z,8.80
2023-03-04T07:12:26.203Z,8.70
2023-03-04T07:15:16.220Z,8.70
2023-03-04T07:18:04.957Z,8.90
2023-03-04T07:20:53.892Z,9.20
2023-03-04T07:23:43.251Z,9.10
2023-03-04T07:26:31.820Z,9.50
2023-03-04T07:29:20.346Z,9.50
2023-03-04T07:32:11.274Z,9.10
2023-03-04T07:34:59.848Z,9.20
2023-03-04T07:37:48.342Z,9.50
2023-03-04T07:40:36.913Z,9.70
2023-03-04T07:43:25.413Z,9.70
2023-03-04T07:46:14.418Z,9.90
2023-03-04T07:49:04.640Z,10.20
2023-03-04T07:51:53.073Z,10.50
2023-03-04T07:54:41.707Z,10.70
2023-03-04T07:57:30.175Z,11.10
2023-03-04T08:00:19.663Z,11.40
2023-03-04T08:03:08.084Z,11.60
2023-03-04T08:05:57.871Z,11.70
2023-03-04T08:08:46.677Z,11.90
2023-03-04T08:11:36.855Z,11.80
2023-03-04T08:14:25.326Z,11.80
2023-03-04T08:17:14.779Z,11.60
2023-03-04T08:20:03.280Z,11.70
2023-03-04T08:22:53.173Z,11.80
2023-03-04T08:25:42.611Z,12.10
2023-03-04T08:28:31.136Z,12.20
2023-03-04T08:31:20.180Z,12.30
2023-03-04T08:34:10.498Z,12.40
2023-03-04T08:36:59.112Z,12.60
2023-03-04T08:39:49.022Z,12.70
2023-03-04T08:42:37.546Z,12.90
2023-03-04T08:45:26.133Z,13.00
2023-03-04T08:48:14.827Z,13.10
2023-03-04T08:51:08.043Z,13.00
2023-03-04T08:53:56.546Z,13.00
2023-03-04T08:56:46.527Z,13.10
2023-03-04T08:59:37.787Z,13.10
2023-03-04T09:02:26.701Z,13.30
2023-03-04T09:05:15.256Z,13.40
2023-03-04T09:08:03.729Z,13.20
2023-03-04T09:10:54.491Z,13.30
2023-03-04T09:13:44.626Z,13.40
2023-03-04T09:19:21.935Z,13.60
2023-03-04T09:22:10.440Z,13.70
2023-03-04T09:24:59.027Z,13.80
2023-03-04T09:27:47.589Z,13.90
2023-03-04T09:30:37.676Z,14.00
2023-03-04T09:33:26.150Z,14.10
2023-03-04T09:36:16.559Z,14.00
2023-03-04T09:39:05.737Z,14.00
2023-03-04T09:41:58.364Z,14.00
2023-03-04T10:04:49.586Z,14.80
2023-03-04T10:07:41.474Z,15.00
2023-03-04T10:10:35.162Z,15.10
2023-03-04T10:13:32.679Z,15.30
2023-03-04T10:16:24.498Z,15.30
2023-03-04T10:19:25.183Z,15.50
2023-03-04T10:22:24.584Z,15.50
2023-03-04T10:25:21.762Z,15.60
2023-03-04T10:28:16.845Z,15.70
2023-03-04T10:31:13.640Z,15.80
2023-03-04T10:34:03.777Z,15.90
2023-03-04T10:36:59.365Z,15.70
2023-03-04T10:39:51.753Z,16.00
2023-03-04T10:42:40.466Z,16.10
2023-03-04T10:45:35.326Z,16.30
2023-03-04T10:48:26.307Z,16.40
2023-03-04T11:14:23.197Z,17.60
2023-03-04T11:17:25.095Z,17.70
2023-03-04T11:52:15.525Z,18.90
2023-03-04T11:55:30.683Z,18.90
2023-03-04T11:58:42.750Z,18.50
2023-03-04T12:01:43.167Z,18.30
2023-03-04T12:05:11.391Z,18.40
2023-03-04T12:08:33.108Z,18.60
2023-03-04T12:11:39.565Z,18.40
2023-03-04T12:14:34.611Z,18.50
2023-03-04T12:17:39.440Z,18.70
2023-03-04T12:20:54.249Z,18.90
2023-03-04T12:24:15.094Z,18.90
2023-03-04T12:32:58.352Z,19.90
2023-03-04T12:35:59.018Z,20.00
2023-03-04T12:39:10.923Z,19.60
2023-03-04T12:42:10.397Z,19.40
2023-03-04T12:45:15.066Z,18.90
2023-03-04T12:48:07.937Z,19.20
2023-03-04T12:51:07.725Z,19.40
2023-03-04T12:54:06.990Z,19.90
2023-03-04T12:56:57.662Z,20.20
2023-03-04T12:59:53.199Z,20.30
2023-03-04T13:02:56.631Z,20.30
2023-03-04T13:06:10.465Z,20.00
2023-03-04T13:09:06.335Z,19.70
2023-03-04T13:12:05.432Z,19.90
2023-03-04T13:15:29.689Z,20.10
2023-03-04T13:18:36.241Z,20.50
2023-03-04T13:21:27.807Z,20.80
2023-03-04T13:24:53.478Z,21.00
2023-03-04T13:27:50.132Z,21.10
2023-03-04T13:34:04.643Z,20.00
2023-03-04T13:36:59.273Z,19.80
2023-03-04T13:40:07.791Z,19.70
2023-03-04T13:42:56.273Z,19.80
2023-03-04T13:45:44.809Z,19.90
2023-03-04T13:48:37.291Z,19.90
2023-03-04T13:51:30.152Z,20.10
2023-03-04T13:54:26.728Z,20.20
2023-03-04T13:57:20.778Z,20.00
2023-03-04T14:00:14.779Z,18.60
2023-03-04T14:03:15.592Z,19.20
2023-03-04T14:06:19.016Z,19.40
2023-03-04T14:09:14.990Z,18.90
2023-03-04T14:12:15.457Z,19.10
2023-03-04T14:15:08.078Z,19.30
2023-03-04T14:17:58.312Z,19.70
2023-03-04T14:20:50.783Z,19.90
2023-03-04T14:23:39.209Z,19.80
2023-03-04T14:26:27.737Z,19.30
2023-03-04T14:29:25.781Z,19.10
2023-03-04T14:32:14.772Z,19.10
2023-03-04T14:35:05.769Z,19.40
2023-03-04T14:37:59.219Z,19.60
2023-03-04T14:40:53.259Z,19.60
2023-03-04T14:46:36.543Z,18.90
2023-03-04T14:49:25.343Z,18.90
2023-03-04T14:55:23.892Z,18.50
2023-03-04T14:58:23.563Z,18.40
2023-03-04T15:01:18.403Z,18.50
2023-03-04T15:04:11.181Z,18.70
2023-03-04T15:06:59.737Z,18.80
2023-03-04T15:09:53.206Z,18.90
2023-03-04T15:12:43.593Z,18.80
2023-03-04T15:15:39.852Z,18.60
2023-03-04T15:18:30.179Z,18.40
2023-03-04T15:21:33.708Z,18.30
2023-03-04T15:24:22.111Z,18.20
2023-03-04T15:27:13.153Z,18.30
2023-03-04T15:30:02.308Z,18.30
2023-03-04T15:32:50.980Z,18.20
2023-03-04T15:35:40.522Z,18.30
2023-03-04T15:38:31.058Z,18.40
2023-03-04T15:41:23.828Z,18.20
2023-03-04T15:47:01.359Z,17.80
2023-03-04T15:49:49.840Z,17.50
2023-03-04T15:52:39.720Z,17.40
2023-03-04T15:55:31.549Z,17.30
2023-03-04T15:58:20.556Z,17.30
2023-03-04T16:01:10.674Z,17.20
2023-03-04T16:03:59.395Z,17.00
2023-03-04T16:06:49.739Z,16.90
2023-03-04T16:09:38.266Z,16.90
2023-03-04T16:12:28.976Z,16.90
2023-03-04T16:15:19.831Z,16.80
2023-03-04T16:18:09.220Z,16.60
2023-03-04T16:20:58.044Z,16.60
2023-03-04T16:23:48.207Z,16.60
2023-03-04T16:26:36.615Z,16.60
2023-03-04T16:29:26.603Z,16.60
2023-03-04T17:14:30.578Z,15.70
2023-03-04T17:17:19.055Z,15.60
2023-03-04T17:20:10.984Z,15.60
2023-03-04T17:22:59.423Z,15.50
2023-03-04T17:25:55.580Z,15.40
2023-03-04T17:28:44.169Z,15.30
2023-03-04T17:31:32.703Z,15.20
2023-03-04T17:34:21.256Z,15.20
2023-03-04T17:37:11.069Z,15.10
2023-03-04T17:39:59.500Z,15.10
2023-03-04T17:42:48.001Z,15.10
2023-03-04T17:45:36.633Z,15.00
2023-03-04T17:48:25.287Z,15.00
2023-03-04T17:51:13.725Z,14.90
2023-03-04T17:54:05.532Z,14.90
2023-03-04T17:56:54.073Z,14.80
2023-03-04T18:02:31.342Z,14.70
2023-03-04T18:05:19.922Z,14.60
2023-03-04T18:08:08.729Z,14.70
2023-03-04T18:10:58.597Z,14.50
2023-03-04T18:13:47.130Z,14.90
2023-03-04T18:16:35.839Z,14.60
2023-03-04T18:19:24.458Z,14.60
2023-03-04T19:15:51.361Z,13.00
2023-03-04T19:18:41.215Z,12.90
2023-03-04T19:21:29.757Z,12.70
2023-03-04T19:24:18.337Z,12.40
2023-03-04T19:27:06.803Z,12.40
2023-03-04T19:29:55.254Z,12.20
2023-03-04T19:32:43.731Z,11.80
2023-03-04T19:35:33.738Z,11.20
2023-03-04T19:38:22.415Z,10.80
2023-03-04T19:41:12.218Z,10.60
2023-03-04T19:44:00.680Z,10.50
2023-03-04T19:46:49.151Z,10.30
2023-03-04T19:49:37.656Z,10.60
2023-03-04T19:52:27.609Z,11.00
2023-03-04T19:55:16.007Z,11.20
2023-03-04T19:58:04.687Z,11.40
2023-03-04T21:37:20.695Z,10.20
2023-03-04T21:40:09.987Z,10.40
2023-03-04T21:42:58.439Z,10.10
2023-03-04T21:45:47.437Z,9.70
2023-03-04T21:48:35.969Z,9.50
2023-03-04T22:05:30.260Z,9.90
2023-03-04T22:11:13.530Z,9.90
2023-03-04T22:25:23.569Z,9.60
2023-03-04T22:33:50.417Z,10.30
2023-03-04T22:36:40.925Z,10.10
2023-03-04T22:39:29.462Z,10.20
2023-03-04T22:42:19.311Z,10.30
2023-03-04T22:45:08.998Z,10.50
2023-03-04T23:38:46.361Z,9.60
2023-03-04T23:41:35.576Z,9.40
2023-03-04T23:44:24.097Z,9.00
2023-03-04T23:47:12.688Z,8.80
2023-03-04T23:50:03.895Z,8.90
2023-03-04T23:52:52.394Z,8.80
2023-03-04T23:55:43.543Z,8.80
2023-03-04T23:58:32.071Z,8.70
